Time,TemperatureF,DewpointF,PressureIn,WindDirection,WindDirectionDegrees,WindSpeedMPH,WindSpeedGustMPH,Humidity,HourlyPrecipIn,Conditions,Clouds,dailyrainin,SoftwareType,DateUTC
2013-01-16 00:00:00,30.7,26.2,30.24,West,280,0.0,0.0,83,0.00,,,0.00,meteohub,2013-01-16 05:00:00,
2013-01-16 00:01:00,30.7,26.2,30.24,West,280,0.0,0.0,83,0.00,,,0.00,meteohub,2013-01-16 05:01:00,
2013-01-16 00:03:00,30.7,26.4,30.24,West,280,0.0,0.0,84,0.00,,,0.00,meteohub,2013-01-16 05:03:00,
2013-01-16 00:08:00,30.7,26.4,30.23,West,280,0.0,0.0,84,0.00,,,0.00,meteohub,2013-01-16 05:08:00,
2013-01-16 00:09:00,30.7,26.4,30.23,West,280,0.0,0.0,84,0.00,,,0.00,meteohub,2013-01-16 05:09:00,
2013-01-16 00:17:00,30.7,26.4,30.24,West,280,0.0,0.0,84,0.00,,,0.00,meteohub,2013-01-16 05:17:00,
2013-01-16 00:22:00,30.9,26.6,30.25,West,280,0.0,0.0,84,0.00,,,0.00,meteohub,2013-01-16 05:22:00,
2013-01-16 00:27:00,30.9,26.6,30.25,West,280,0.0,0.0,84,0.00,,,0.00,meteohub,2013-01-16 05:27:00,
2013-01-16 00:32:00,30.9,26.4,30.25,West,280,0.0,0.0,83,0.00,,,0.00,meteohub,2013-01-16 05:32:00,
2013-01-16 00:37:00,31.1,26.8,30.25,West,280,0.0,0.0,84,0.00,,,0.00,meteohub,2013-01-16 05:37:00,
2013-01-16 00:42:00,31.3,26.8,30.25,West,280,0.0,0.0,83,0.00,,,0.00,meteohub,2013-01-16 05:42:00,
2013-01-16 00:47:00,31.3,26.4,30.25,West,280,0.0,0.0,82,0.00,,,0.00,meteohub,2013-01-16 05:47:00,
2013-01-16 00:52:00,31.3,26.1,30.24,West,280,0.0,0.0,81,0.00,,,0.00,meteohub,2013-01-16 05:52:00,
2013-01-16 00:57:00,31.3,26.4,30.24,West,280,0.0,0.0,82,0.00,,,0.00,meteohub,2013-01-16 05:57:00,
2013-01-16 01:02:00,31.3,26.4,30.24,West,280,0.0,0.0,82,0.00,,,0.00,meteohub,2013-01-16 06:02:00,
2013-01-16 01:07:00,31.3,26.4,30.23,West,280,0.0,0.0,82,0.00,,,0.00,meteohub,2013-01-16 06:07:00,
2013-01-16 01:12:00,31.5,27.0,30.23,West,280,0.0,0.0,83,0.00,,,0.00,meteohub,2013-01-16 06:12:00,
2013-01-16 01:17:00,31.5,26.2,30.22,West,280,0.0,0.0,81,0.00,,,0.00,meteohub,2013-01-16 06:17:00,
2013-01-16 01:22:00,31.5,26.2,30.22,West,280,0.0,0.0,81,0.00,,,0.00,meteohub,2013-01-16 06:22:00,
2013-01-16 01:27:00,31.5,26.1,30.22,West,280,0.0,0.0,80,0.00,,,0.00,meteohub,2013-01-16 06:27:00,
2013-01-16 01:32:00,31.6,26.2,30.23,West,280,0.0,0.0,80,0.00,,,0.00,meteohub,2013-01-16 06:32:00,
2013-01-16 01:37:00,31.6,27.1,30.23,West,280,0.0,0.0,83,0.00,,,0.00,meteohub,2013-01-16 06:37:00,
2013-01-16 01:42:00,31.6,27.1,30.22,West,280,0.0,0.0,83,0.00,,,0.00,meteohub,2013-01-16 06:42:00,
2013-01-16 01:47:00,31.6,26.8,30.22,West,280,0.0,0.0,82,0.00,,,0.00,meteohub,2013-01-16 06:47:00,
2013-01-16 01:52:00,31.6,26.8,30.22,West,280,0.0,0.0,82,0.00,,,0.00,meteohub,2013-01-16 06:52:00,
2013-01-16 01:57:00,31.5,26.2,30.23,West,280,0.0,0.0,81,0.00,,,0.00,meteohub,2013-01-16 06:57:00,
2013-01-16 02:02:00,31.5,26.2,30.23,West,280,0.0,0.0,81,0.00,,,0.00,meteohub,2013-01-16 07:02:00,
2013-01-16 02:07:00,31.6,26.2,30.22,West,280,0.0,0.0,80,0.00,,,0.00,meteohub,2013-01-16 07:07:00,
2013-01-16 02:12:00,31.6,26.2,30.23,West,280,0.0,0.0,80,0.00,,,0.00,meteohub,2013-01-16 07:12:00,
2013-01-16 02:17:00,31.6,25.9,30.23,West,280,0.0,0.0,79,0.00,,,0.00,meteohub,2013-01-16 07:17:00,
2013-01-16 02:22:00,31.6,25.9,30.23,West,280,0.0,0.0,79,0.00,,,0.00,meteohub,2013-01-16 07:22:00,
2013-01-16 02:27:00,31.5,25.7,30.23,West,280,0.0,0.0,79,0.00,,,0.00,meteohub,2013-01-16 07:27:00,
2013-01-16 02:32:00,31.6,26.2,30.22,West,280,0.0,0.0,80,0.00,,,0.00,meteohub,2013-01-16 07:32:00,
2013-01-16 02:37:00,31.6,26.2,30.22,West,280,0.0,0.0,80,0.00,,,0.00,meteohub,2013-01-16 07:37:00,
2013-01-16 02:42:00,31.6,25.9,30.22,West,280,0.0,0.0,79,0.00,,,0.00,meteohub,2013-01-16 07:42:00,
2013-01-16 02:47:00,31.6,26.2,30.22,West,280,0.0,0.0,80,0.00,,,0.00,meteohub,2013-01-16 07:47:00,
2013-01-16 02:52:00,31.6,26.2,30.21,West,280,0.0,0.0,80,0.00,,,0.00,meteohub,2013-01-16 07:52:00,
2013-01-16 02:57:00,31.6,25.9,30.22,West,280,0.0,0.0,79,0.00,,,0.00,meteohub,2013-01-16 07:57:00,
2013-01-16 03:02:00,31.6,26.2,30.22,West,280,0.0,0.0,80,0.00,,,0.00,meteohub,2013-01-16 08:02:00,
2013-01-16 03:07:00,31.6,26.2,30.21,West,280,0.0,0.0,80,0.00,,,0.00,meteohub,2013-01-16 08:07:00,
2013-01-16 03:12:00,31.6,26.4,30.21,West,280,0.0,0.0,81,0.00,,,0.00,meteohub,2013-01-16 08:12:00,
2013-01-16 03:17:00,31.6,25.5,30.20,West,280,0.0,0.0,78,0.00,,,0.00,meteohub,2013-01-16 08:17:00,
2013-01-16 03:22:00,31.6,25.9,30.19,West,280,0.0,1.0,79,0.00,,,0.00,meteohub,2013-01-16 08:22:00,
2013-01-16 03:27:00,31.6,25.9,30.19,West,280,0.0,1.0,79,0.00,,,0.00,meteohub,2013-01-16 08:27:00,
2013-01-16 03:32:00,31.6,25.9,30.19,West,280,0.0,1.0,79,0.00,,,0.00,meteohub,2013-01-16 08:32:00,
2013-01-16 03:37:00,31.6,25.5,30.19,West,280,0.0,0.0,78,0.00,,,0.00,meteohub,2013-01-16 08:37:00,
2013-01-16 03:42:00,31.6,25.9,30.19,West,280,0.0,0.0,79,0.00,,,0.00,meteohub,2013-01-16 08:42:00,
2013-01-16 03:47:00,31.6,25.5,30.17,West,280,0.0,0.0,78,0.00,,,0.00,meteohub,2013-01-16 08:47:00,
2013-01-16 03:52:00,31.5,25.3,30.17,West,280,0.0,0.0,78,0.00,,,0.00,meteohub,2013-01-16 08:52:00,
2013-01-16 03:57:00,31.5,25.3,30.17,West,280,0.0,0.0,78,0.00,,,0.00,meteohub,2013-01-16 08:57:00,
2013-01-16 04:02:00,31.5,25.7,30.17,West,280,0.0,0.0,79,0.00,,,0.00,meteohub,2013-01-16 09:02:00,
2013-01-16 04:07:00,31.5,26.1,30.17,West,280,0.0,0.0,80,0.00,,,0.00,meteohub,2013-01-16 09:07:00,
2013-01-16 04:12:00,31.3,26.1,30.17,West,280,0.0,0.0,81,0.00,,,0.00,meteohub,2013-01-16 09:12:00,
2013-01-16 04:17:00,30.9,26.4,30.17,West,280,0.0,0.0,83,0.00,,,0.00,meteohub,2013-01-16 09:17:00,
2013-01-16 04:22:00,30.7,26.8,30.18,West,280,0.0,0.0,85,0.00,,,0.00,meteohub,2013-01-16 09:22:00,
2013-01-16 04:27:00,30.4,26.8,30.17,West,280,0.0,0.0,86,0.00,,,0.00,meteohub,2013-01-16 09:27:00,
2013-01-16 04:32:00,30.0,26.6,30.18,West,280,0.0,0.0,87,0.00,,,0.00,meteohub,2013-01-16 09:32:00,
2013-01-16 04:37:00,29.8,26.8,30.17,West,280,0.0,0.0,88,0.00,,,0.00,meteohub,2013-01-16 09:37:00,
2013-01-16 04:42:00,29.7,26.8,30.17,West,280,0.0,0.0,89,0.00,,,0.00,meteohub,2013-01-16 09:42:00,
2013-01-16 04:47:00,29.3,26.4,30.16,SSW,211,0.0,0.0,89,0.00,,,0.00,meteohub,2013-01-16 09:47:00,
2013-01-16 04:52:00,29.1,26.6,30.15,SSW,206,0.0,1.0,90,0.00,,,0.00,meteohub,2013-01-16 09:52:00,
2013-01-16 04:57:00,28.9,26.6,30.15,SSW,206,0.0,2.0,91,0.00,,,0.00,meteohub,2013-01-16 09:57:00,
2013-01-16 05:02:00,28.9,26.6,30.15,SSW,206,0.0,2.0,91,0.00,,,0.00,meteohub,2013-01-16 10:02:00,
2013-01-16 05:07:00,28.9,27.0,30.14,SSW,206,0.0,1.0,92,0.00,,,0.00,meteohub,2013-01-16 10:07:00,
2013-01-16 05:12:00,28.9,27.0,30.14,SSW,206,0.0,0.0,92,0.00,,,0.00,meteohub,2013-01-16 10:12:00,
2013-01-16 05:17:00,28.9,27.0,30.14,SSW,206,0.0,0.0,92,0.00,,,0.00,meteohub,2013-01-16 10:17:00,
2013-01-16 05:22:00,28.9,27.0,30.14,SSW,206,0.0,0.0,92,0.00,,,0.00,meteohub,2013-01-16 10:22:00,
2013-01-16 05:27:00,28.9,27.0,30.14,SSW,206,0.0,0.0,92,0.00,,,0.00,meteohub,2013-01-16 10:27:00,
2013-01-16 05:32:00,28.9,27.1,30.14,SSW,206,0.0,0.0,93,0.00,,,0.00,meteohub,2013-01-16 10:32:00,
2013-01-16 05:37:00,28.9,27.1,30.14,SSW,206,0.0,0.0,93,0.00,,,0.00,meteohub,2013-01-16 10:37:00,
2013-01-16 05:42:00,28.9,27.1,30.14,SSW,206,0.0,0.0,93,0.00,,,0.00,meteohub,2013-01-16 10:42:00,
2013-01-16 05:47:00,28.9,27.1,30.13,SSW,206,0.0,0.0,93,0.00,,,0.00,meteohub,2013-01-16 10:47:00,
2013-01-16 05:52:00,28.9,27.1,30.13,SSW,206,0.0,0.0,93,0.00,,,0.00,meteohub,2013-01-16 10:52:00,
2013-01-16 05:57:00,28.9,27.1,30.13,SSW,206,0.0,0.0,93,0.00,,,0.00,meteohub,2013-01-16 10:57:00,
2013-01-16 06:02:00,28.9,27.1,30.13,SSW,206,0.0,0.0,93,0.00,,,0.00,meteohub,2013-01-16 11:02:00,
2013-01-16 06:07:00,28.9,27.1,30.13,SSW,206,0.0,0.0,93,0.00,,,0.00,meteohub,2013-01-16 11:07:00,
2013-01-16 06:12:00,28.8,27.0,30.12,SSW,206,0.0,0.0,93,0.00,,,0.00,meteohub,2013-01-16 11:12:00,
2013-01-16 06:17:00,28.8,27.0,30.13,SSW,206,0.0,0.0,93,0.00,,,0.00,meteohub,2013-01-16 11:17:00,
2013-01-16 06:22:00,28.8,27.0,30.12,SSW,206,0.0,0.0,93,0.00,,,0.00,meteohub,2013-01-16 11:22:00,
2013-01-16 06:27:00,28.8,27.0,30.12,SSW,206,0.0,0.0,93,0.00,,,0.00,meteohub,2013-01-16 11:27:00,
2013-01-16 06:32:00,28.8,27.0,30.12,SSW,206,0.0,1.0,93,0.00,,,0.00,meteohub,2013-01-16 11:32:00,
2013-01-16 06:37:00,28.8,27.0,30.12,SSW,206,0.0,1.0,93,0.00,,,0.00,meteohub,2013-01-16 11:37:00,
2013-01-16 06:42:00,28.8,27.0,30.12,SSW,206,0.0,1.0,93,0.00,,,0.00,meteohub,2013-01-16 11:42:00,
2013-01-16 06:47:00,28.8,27.0,30.12,SSW,206,0.0,0.0,93,0.00,,,0.00,meteohub,2013-01-16 11:47:00,
2013-01-16 06:52:00,28.8,27.0,30.12,SSW,206,0.0,1.0,93,0.00,,,0.00,meteohub,2013-01-16 11:52:00,
2013-01-16 06:58:00,28.6,26.8,30.12,SSW,206,0.0,1.0,93,0.00,,,0.00,meteohub,2013-01-16 11:58:00,
2013-01-16 07:03:00,28.6,26.8,30.12,SSW,206,0.0,1.0,93,0.00,,,0.00,meteohub,2013-01-16 12:03:00,
2013-01-16 07:08:00,28.6,26.8,30.12,West,263,1.0,2.0,93,0.00,,,0.00,meteohub,2013-01-16 12:08:00,
2013-01-16 07:13:00,28.6,26.8,30.12,West,266,0.0,2.0,93,0.00,,,0.00,meteohub,2013-01-16 12:13:00,
2013-01-16 07:18:00,28.6,26.8,30.11,West,266,0.0,2.0,93,0.00,,,0.00,meteohub,2013-01-16 12:18:00,
2013-01-16 07:23:00,28.6,26.8,30.10,West,266,0.0,2.0,93,0.00,,,0.00,meteohub,2013-01-16 12:23:00,
2013-01-16 07:28:00,28.6,26.8,30.10,West,266,0.0,0.0,93,0.00,,,0.00,meteohub,2013-01-16 12:28:00,
2013-01-16 07:33:00,28.8,27.3,30.10,West,266,0.0,0.0,94,0.00,,,0.00,meteohub,2013-01-16 12:33:00,
2013-01-16 07:38:00,28.8,27.0,30.10,West,266,0.0,0.0,93,0.00,,,0.00,meteohub,2013-01-16 12:38:00,
2013-01-16 07:43:00,28.8,27.0,30.09,West,266,0.0,0.0,93,0.00,,,0.00,meteohub,2013-01-16 12:43:00,
2013-01-16 07:48:00,28.8,27.0,30.09,West,266,0.0,0.0,93,0.00,,,0.00,meteohub,2013-01-16 12:48:00,
2013-01-16 07:53:00,28.8,27.0,30.09,West,266,0.0,0.0,93,0.00,,,0.00,meteohub,2013-01-16 12:53:00,
2013-01-16 07:58:00,28.8,27.0,30.09,West,281,0.0,0.0,93,0.00,,,0.00,meteohub,2013-01-16 12:58:00,
2013-01-16 08:03:00,28.8,27.0,30.09,West,281,0.0,1.0,93,0.00,,,0.00,meteohub,2013-01-16 13:03:00,
2013-01-16 08:08:00,28.9,27.1,30.09,West,281,0.0,1.0,93,0.00,,,0.00,meteohub,2013-01-16 13:08:00,
2013-01-16 08:13:00,28.9,27.5,30.09,West,281,0.0,0.0,94,0.00,,,0.00,meteohub,2013-01-16 13:13:00,
2013-01-16 08:18:00,28.9,27.1,30.10,West,281,0.0,0.0,93,0.00,,,0.00,meteohub,2013-01-16 13:18:00,
2013-01-16 08:23:00,28.9,27.1,30.09,West,281,0.0,0.0,93,0.00,,,0.00,meteohub,2013-01-16 13:23:00,
2013-01-16 08:28:00,28.9,27.5,30.09,West,281,0.0,0.0,94,0.00,,,0.00,meteohub,2013-01-16 13:28:00,
2013-01-16 08:33:00,29.1,27.7,30.09,West,281,0.0,0.0,94,0.00,,,0.00,meteohub,2013-01-16 13:33:00,
2013-01-16 08:38:00,29.1,27.7,30.09,West,281,0.0,0.0,94,0.00,,,0.00,meteohub,2013-01-16 13:38:00,
2013-01-16 08:43:00,29.1,27.3,30.09,West,281,0.0,0.0,93,0.00,,,0.00,meteohub,2013-01-16 13:43:00,
2013-01-16 08:48:00,29.1,27.7,30.08,West,281,0.0,0.0,94,0.00,,,0.00,meteohub,2013-01-16 13:48:00,
2013-01-16 08:53:00,29.5,28.0,30.08,West,281,0.0,0.0,94,0.00,,,0.00,meteohub,2013-01-16 13:53:00,
2013-01-16 08:58:00,29.7,28.2,30.09,West,281,0.0,0.0,94,0.00,,,0.00,meteohub,2013-01-16 13:58:00,
2013-01-16 09:03:00,29.7,27.9,30.08,West,281,0.0,0.0,93,0.00,,,0.00,meteohub,2013-01-16 14:03:00,
2013-01-16 09:08:00,29.5,27.7,30.07,West,281,0.0,0.0,93,0.00,,,0.00,meteohub,2013-01-16 14:08:00,
2013-01-16 09:13:00,29.5,27.7,30.06,West,281,0.0,0.0,93,0.00,,,0.00,meteohub,2013-01-16 14:13:00,
2013-01-16 09:18:00,29.7,27.9,30.06,West,281,0.0,0.0,93,0.00,,,0.00,meteohub,2013-01-16 14:18:00,
2013-01-16 09:23:00,29.7,27.9,30.05,West,281,0.0,0.0,93,0.00,,,0.00,meteohub,2013-01-16 14:23:00,
2013-01-16 09:28:00,29.8,28.0,30.04,West,281,0.0,0.0,93,0.00,,,0.00,meteohub,2013-01-16 14:28:00,
2013-01-16 09:33:00,29.7,27.9,30.04,West,281,0.0,0.0,93,0.00,,,0.00,meteohub,2013-01-16 14:33:00,
2013-01-16 09:38:00,29.7,27.9,30.03,West,281,0.0,0.0,93,0.01,,,0.01,meteohub,2013-01-16 14:38:00,
2013-01-16 09:43:00,29.7,27.9,30.03,West,281,0.0,0.0,93,0.01,,,0.01,meteohub,2013-01-16 14:43:00,
2013-01-16 09:48:00,29.7,27.9,30.01,West,281,0.0,0.0,93,0.01,,,0.01,meteohub,2013-01-16 14:48:00,
2013-01-16 09:53:00,29.8,28.0,30.01,West,281,0.0,0.0,93,0.01,,,0.01,meteohub,2013-01-16 14:53:00,
2013-01-16 09:58:00,30.0,28.2,30.01,West,281,0.0,1.0,93,0.01,,,0.01,meteohub,2013-01-16 14:58:00,
2013-01-16 10:03:00,30.0,28.2,30.01,West,281,0.0,1.0,93,0.01,,,0.01,meteohub,2013-01-16 15:03:00,
2013-01-16 10:08:00,30.0,28.2,30.00,West,281,0.0,0.0,93,0.01,,,0.01,meteohub,2013-01-16 15:08:00,
2013-01-16 10:14:00,30.0,28.2,29.99,West,281,0.0,0.0,93,0.01,,,0.01,meteohub,2013-01-16 15:14:00,
2013-01-16 10:19:00,30.0,28.2,29.98,ESE,118,0.0,0.0,93,0.01,,,0.01,meteohub,2013-01-16 15:19:00,
2013-01-16 10:24:00,30.0,28.2,29.97,ESE,118,0.0,0.0,93,0.01,,,0.01,meteohub,2013-01-16 15:24:00,
2013-01-16 10:29:00,30.4,28.9,29.97,ESE,118,0.0,0.0,94,0.01,,,0.01,meteohub,2013-01-16 15:29:00,
2013-01-16 10:34:00,30.4,28.6,29.97,ESE,118,0.0,0.0,93,0.01,,,0.01,meteohub,2013-01-16 15:34:00,
2013-01-16 10:39:00,30.6,28.8,29.98,SW,232,0.0,0.0,93,0.00,,,0.01,meteohub,2013-01-16 15:39:00,
2013-01-16 10:44:00,30.6,29.1,29.98,SW,232,0.0,0.0,94,0.00,,,0.01,meteohub,2013-01-16 15:44:00,
2013-01-16 10:49:00,30.6,29.1,29.97,SW,232,0.0,0.0,94,0.00,,,0.01,meteohub,2013-01-16 15:49:00,
2013-01-16 10:54:00,30.6,29.1,29.98,SW,232,0.0,0.0,94,0.00,,,0.01,meteohub,2013-01-16 15:54:00,
2013-01-16 10:59:00,30.7,29.3,29.98,NW,317,0.0,0.0,94,0.00,,,0.01,meteohub,2013-01-16 15:59:00,
2013-01-16 11:04:00,30.7,28.9,29.98,NW,305,0.0,0.0,93,0.00,,,0.01,meteohub,2013-01-16 16:04:00,
2013-01-16 11:09:00,30.7,28.9,29.96,NW,305,0.0,0.0,93,0.00,,,0.01,meteohub,2013-01-16 16:09:00,
2013-01-16 11:14:00,30.7,29.3,29.97,NW,305,0.0,0.0,94,0.00,,,0.01,meteohub,2013-01-16 16:14:00,
2013-01-16 11:19:00,30.7,28.9,29.96,NNW,331,0.0,0.0,93,0.00,,,0.01,meteohub,2013-01-16 16:19:00,
2013-01-16 11:24:00,30.6,28.8,29.97,NW,324,0.0,0.0,93,0.00,,,0.01,meteohub,2013-01-16 16:24:00,
2013-01-16 11:29:00,30.6,29.1,29.96,WNW,284,0.0,0.0,94,0.00,,,0.01,meteohub,2013-01-16 16:29:00,
2013-01-16 11:34:00,30.7,29.3,29.95,WNW,288,0.0,0.0,94,0.00,,,0.01,meteohub,2013-01-16 16:34:00,
2013-01-16 11:39:00,30.9,29.5,29.95,West,277,0.0,0.0,94,0.00,,,0.01,meteohub,2013-01-16 16:39:00,
2013-01-16 11:44:00,30.9,29.5,29.94,West,277,0.0,0.0,94,0.00,,,0.01,meteohub,2013-01-16 16:44:00,
2013-01-16 11:49:00,31.1,29.7,29.94,West,277,0.0,0.0,94,0.00,,,0.01,meteohub,2013-01-16 16:49:00,
2013-01-16 11:54:00,31.3,29.8,29.94,West,277,0.0,0.0,94,0.00,,,0.01,meteohub,2013-01-16 16:54:00,
2013-01-16 11:59:00,31.3,29.8,29.95,West,277,0.0,0.0,94,0.00,,,0.01,meteohub,2013-01-16 16:59:00,
2013-01-16 12:04:00,31.3,29.8,29.95,West,277,0.0,0.0,94,0.00,,,0.01,meteohub,2013-01-16 17:04:00,
2013-01-16 12:09:00,31.3,29.8,29.95,WNW,302,0.0,0.0,94,0.00,,,0.01,meteohub,2013-01-16 17:09:00,
2013-01-16 12:14:00,31.3,29.8,29.94,WNW,302,0.0,0.0,94,0.00,,,0.01,meteohub,2013-01-16 17:14:00,
2013-01-16 12:20:00,31.3,29.8,29.93,WNW,302,0.0,0.0,94,0.01,,,0.02,meteohub,2013-01-16 17:20:00,
2013-01-16 12:25:00,31.5,30.0,29.93,WNW,302,0.0,0.0,94,0.01,,,0.02,meteohub,2013-01-16 17:25:00,
2013-01-16 12:30:00,31.5,30.0,29.92,WNW,302,0.0,0.0,94,0.01,,,0.02,meteohub,2013-01-16 17:30:00,
2013-01-16 12:35:00,31.5,30.0,29.92,WNW,302,0.0,0.0,94,0.01,,,0.02,meteohub,2013-01-16 17:35:00,
2013-01-16 12:40:00,31.6,30.2,29.93,WNW,302,0.0,0.0,94,0.01,,,0.02,meteohub,2013-01-16 17:40:00,
2013-01-16 12:45:00,31.6,30.2,29.93,SSW,194,0.0,0.0,94,0.01,,,0.02,meteohub,2013-01-16 17:45:00,
2013-01-16 12:50:00,31.5,30.0,29.93,SW,232,0.0,0.0,94,0.01,,,0.02,meteohub,2013-01-16 17:50:00,
2013-01-16 12:55:00,31.5,30.0,29.93,SW,232,0.0,0.0,94,0.01,,,0.02,meteohub,2013-01-16 17:55:00,
2013-01-16 13:00:00,31.5,30.0,29.92,SW,232,0.0,0.0,94,0.01,,,0.02,meteohub,2013-01-16 18:00:00,
2013-01-16 13:05:00,31.5,30.0,29.91,SW,232,0.0,0.0,94,0.01,,,0.02,meteohub,2013-01-16 18:05:00,
2013-01-16 13:10:00,31.5,30.0,29.91,SW,232,0.0,0.0,94,0.00,,,0.02,meteohub,2013-01-16 18:10:00,
2013-01-16 13:15:00,31.6,30.2,29.91,SW,232,0.0,0.0,94,0.00,,,0.02,meteohub,2013-01-16 18:15:00,
2013-01-16 13:20:00,31.6,30.2,29.91,SW,232,0.0,0.0,94,0.00,,,0.02,meteohub,2013-01-16 18:20:00,
2013-01-16 13:25:00,31.6,30.2,29.91,SW,232,0.0,0.0,94,0.00,,,0.02,meteohub,2013-01-16 18:25:00,
2013-01-16 13:30:00,31.5,30.0,29.90,WNW,298,0.0,0.0,94,0.00,,,0.02,meteohub,2013-01-16 18:30:00,
2013-01-16 13:35:00,31.5,30.0,29.89,WNW,298,0.0,0.0,94,0.00,,,0.02,meteohub,2013-01-16 18:35:00,
2013-01-16 13:40:00,31.5,30.0,29.88,WNW,298,0.0,0.0,94,0.00,,,0.02,meteohub,2013-01-16 18:40:00,
2013-01-16 13:45:00,31.5,30.0,29.86,WNW,298,0.0,0.0,94,0.01,,,0.03,meteohub,2013-01-16 18:45:00,
2013-01-16 13:50:00,31.5,30.0,29.88,WNW,288,0.0,0.0,94,0.01,,,0.03,meteohub,2013-01-16 18:50:00,
2013-01-16 13:55:00,31.5,30.0,29.85,West,271,0.0,0.0,94,0.01,,,0.03,meteohub,2013-01-16 18:55:00,
2013-01-16 14:00:00,31.5,30.0,29.84,West,271,0.0,0.0,94,0.01,,,0.03,meteohub,2013-01-16 19:00:00,
2013-01-16 14:05:00,31.5,30.0,29.84,West,271,0.0,0.0,94,0.01,,,0.03,meteohub,2013-01-16 19:05:00,
2013-01-16 14:10:00,31.5,30.0,29.85,West,277,0.0,0.0,94,0.01,,,0.03,meteohub,2013-01-16 19:10:00,
2013-01-16 14:15:00,31.5,30.0,29.86,WNW,292,0.0,0.0,94,0.01,,,0.03,meteohub,2013-01-16 19:15:00,
2013-01-16 14:20:00,31.5,30.0,29.85,WNW,292,0.0,0.0,94,0.01,,,0.03,meteohub,2013-01-16 19:20:00,
2013-01-16 14:25:00,31.5,30.0,29.84,WNW,292,0.0,0.0,94,0.01,,,0.03,meteohub,2013-01-16 19:25:00,
2013-01-16 14:30:00,31.5,30.0,29.83,WNW,292,0.0,0.0,94,0.01,,,0.03,meteohub,2013-01-16 19:30:00,
2013-01-16 14:35:00,31.5,30.0,29.86,WNW,292,0.0,0.0,94,0.01,,,0.03,meteohub,2013-01-16 19:35:00,
2013-01-16 14:40:00,31.5,30.0,29.86,WNW,292,0.0,0.0,94,0.01,,,0.03,meteohub,2013-01-16 19:40:00,
2013-01-16 14:45:00,31.5,30.0,29.85,WNW,292,0.0,0.0,94,0.00,,,0.03,meteohub,2013-01-16 19:45:00,
2013-01-16 14:50:00,31.5,30.0,29.85,WNW,292,0.0,0.0,94,0.00,,,0.03,meteohub,2013-01-16 19:50:00,
2013-01-16 14:55:00,31.5,30.0,29.85,WNW,292,0.0,0.0,94,0.00,,,0.03,meteohub,2013-01-16 19:55:00,
2013-01-16 15:00:00,31.5,30.0,29.85,WNW,292,0.0,0.0,94,0.00,,,0.03,meteohub,2013-01-16 20:00:00,
2013-01-16 15:05:00,31.5,30.0,29.85,WNW,292,0.0,0.0,94,0.00,,,0.03,meteohub,2013-01-16 20:05:00,
2013-01-16 15:10:00,31.5,30.0,29.86,WNW,292,0.0,0.0,94,0.00,,,0.03,meteohub,2013-01-16 20:10:00,
2013-01-16 15:16:00,31.5,30.0,29.87,WNW,292,0.0,0.0,94,0.00,,,0.03,meteohub,2013-01-16 20:16:00,
2013-01-16 15:21:00,31.5,30.2,29.87,WNW,292,0.0,0.0,95,0.00,,,0.03,meteohub,2013-01-16 20:21:00,
2013-01-16 15:26:00,31.5,30.2,29.87,WNW,292,0.0,0.0,95,0.00,,,0.03,meteohub,2013-01-16 20:26:00,
2013-01-16 15:31:00,31.5,30.2,29.86,WNW,292,0.0,0.0,95,0.00,,,0.03,meteohub,2013-01-16 20:31:00,
2013-01-16 15:36:00,31.5,30.2,29.85,WNW,292,0.0,0.0,95,0.00,,,0.03,meteohub,2013-01-16 20:36:00,
2013-01-16 15:41:00,31.5,30.2,29.86,WNW,292,0.0,0.0,95,0.00,,,0.03,meteohub,2013-01-16 20:41:00,
2013-01-16 15:46:00,31.5,30.2,29.86,WNW,292,0.0,0.0,95,0.00,,,0.03,meteohub,2013-01-16 20:46:00,
2013-01-16 15:51:00,31.6,30.4,29.86,WNW,292,0.0,0.0,95,0.00,,,0.03,meteohub,2013-01-16 20:51:00,
2013-01-16 15:56:00,31.6,30.4,29.85,WNW,292,0.0,0.0,95,0.00,,,0.03,meteohub,2013-01-16 20:56:00,
2013-01-16 16:01:00,31.6,30.4,29.86,WNW,292,0.0,0.0,95,0.00,,,0.03,meteohub,2013-01-16 21:01:00,
2013-01-16 16:06:00,31.6,30.4,29.85,WNW,292,0.0,0.0,95,0.00,,,0.03,meteohub,2013-01-16 21:06:00,
2013-01-16 16:11:00,31.6,30.4,29.86,WNW,292,0.0,0.0,95,0.00,,,0.03,meteohub,2013-01-16 21:11:00,
2013-01-16 16:16:00,31.6,30.4,29.87,WNW,292,0.0,0.0,95,0.00,,,0.03,meteohub,2013-01-16 21:16:00,
2013-01-16 16:21:00,31.6,30.4,29.87,WNW,292,0.0,0.0,95,0.00,,,0.03,meteohub,2013-01-16 21:21:00,
2013-01-16 16:26:00,31.6,30.4,29.87,WNW,292,0.0,0.0,95,0.00,,,0.03,meteohub,2013-01-16 21:26:00,
2013-01-16 16:31:00,31.6,30.4,29.86,WNW,292,0.0,0.0,95,0.00,,,0.03,meteohub,2013-01-16 21:31:00,
2013-01-16 16:36:00,31.6,30.4,29.87,WNW,292,0.0,0.0,95,0.00,,,0.03,meteohub,2013-01-16 21:36:00,
2013-01-16 16:41:00,31.6,30.4,29.85,WNW,292,0.0,0.0,95,0.00,,,0.03,meteohub,2013-01-16 21:41:00,
2013-01-16 16:46:00,31.6,30.4,29.85,WNW,292,0.0,0.0,95,0.00,,,0.03,meteohub,2013-01-16 21:46:00,
2013-01-16 16:51:00,31.6,30.4,29.86,WNW,292,0.0,0.0,95,0.00,,,0.03,meteohub,2013-01-16 21:51:00,
2013-01-16 16:56:00,31.6,30.4,29.86,WNW,292,0.0,0.0,95,0.00,,,0.03,meteohub,2013-01-16 21:56:00,
2013-01-16 17:01:00,31.6,30.4,29.86,WNW,292,0.0,0.0,95,0.00,,,0.03,meteohub,2013-01-16 22:01:00,
2013-01-16 17:06:00,31.6,30.4,29.86,WNW,292,0.0,0.0,95,0.00,,,0.03,meteohub,2013-01-16 22:06:00,
2013-01-16 17:11:00,31.6,30.4,29.86,WNW,292,0.0,0.0,95,0.00,,,0.03,meteohub,2013-01-16 22:11:00,
2013-01-16 17:16:00,31.6,30.4,29.86,WNW,292,0.0,0.0,95,0.00,,,0.03,meteohub,2013-01-16 22:16:00,
2013-01-16 17:21:00,31.6,30.4,29.86,WNW,292,0.0,0.0,95,0.00,,,0.03,meteohub,2013-01-16 22:21:00,
2013-01-16 17:26:00,31.6,30.4,29.86,WNW,292,0.0,0.0,95,0.00,,,0.03,meteohub,2013-01-16 22:26:00,
2013-01-16 17:31:00,31.6,30.4,29.86,WNW,292,0.0,0.0,95,0.00,,,0.03,meteohub,2013-01-16 22:31:00,
2013-01-16 17:36:00,31.6,30.4,29.87,WNW,292,0.0,0.0,95,0.00,,,0.03,meteohub,2013-01-16 22:36:00,
2013-01-16 17:41:00,31.6,30.4,29.86,WNW,292,0.0,0.0,95,0.00,,,0.03,meteohub,2013-01-16 22:41:00,
2013-01-16 17:46:00,31.6,30.4,29.86,WNW,292,0.0,0.0,95,0.00,,,0.03,meteohub,2013-01-16 22:46:00,
2013-01-16 17:51:00,31.6,30.4,29.86,WNW,292,0.0,0.0,95,0.00,,,0.03,meteohub,2013-01-16 22:51:00,
2013-01-16 17:56:00,31.6,30.4,29.86,WNW,292,0.0,0.0,95,0.00,,,0.03,meteohub,2013-01-16 22:56:00,
2013-01-16 18:01:00,31.6,30.4,29.86,WNW,292,0.0,0.0,95,0.00,,,0.03,meteohub,2013-01-16 23:01:00,
2013-01-16 18:06:00,31.6,30.4,29.86,WNW,292,0.0,0.0,95,0.00,,,0.03,meteohub,2013-01-16 23:06:00,
2013-01-16 18:11:00,31.6,30.4,29.86,WNW,292,0.0,0.0,95,0.00,,,0.03,meteohub,2013-01-16 23:11:00,
2013-01-16 18:17:00,31.6,30.4,29.86,WNW,292,0.0,0.0,95,0.00,,,0.03,meteohub,2013-01-16 23:17:00,
2013-01-16 18:22:00,31.6,30.4,29.86,WNW,292,0.0,0.0,95,0.00,,,0.03,meteohub,2013-01-16 23:22:00,
2013-01-16 18:27:00,31.6,30.4,29.86,WNW,292,0.0,0.0,95,0.00,,,0.03,meteohub,2013-01-16 23:27:00,
2013-01-16 18:32:00,31.6,30.4,29.86,WNW,292,0.0,0.0,95,0.00,,,0.03,meteohub,2013-01-16 23:32:00,
2013-01-16 18:37:00,31.6,30.4,29.85,WNW,292,0.0,0.0,95,0.00,,,0.03,meteohub,2013-01-16 23:37:00,
2013-01-16 18:42:00,31.6,30.4,29.86,WNW,292,0.0,0.0,95,0.00,,,0.03,meteohub,2013-01-16 23:42:00,
2013-01-16 18:47:00,31.6,30.4,29.85,WNW,292,0.0,0.0,95,0.00,,,0.03,meteohub,2013-01-16 23:47:00,
2013-01-16 18:52:00,31.6,30.4,29.86,WNW,292,0.0,0.0,95,0.00,,,0.03,meteohub,2013-01-16 23:52:00,
2013-01-16 18:57:00,31.6,30.4,29.85,WNW,292,0.0,0.0,95,0.00,,,0.03,meteohub,2013-01-16 23:57:00,
2013-01-16 19:02:00,31.6,30.4,29.85,WNW,292,0.0,0.0,95,0.00,,,0.03,meteohub,2013-01-17 00:02:00,
2013-01-16 19:07:00,31.6,30.4,29.84,WNW,292,0.0,0.0,95,0.00,,,0.03,meteohub,2013-01-17 00:07:00,
2013-01-16 19:12:00,31.6,30.4,29.85,WNW,292,0.0,0.0,95,0.00,,,0.03,meteohub,2013-01-17 00:12:00,
2013-01-16 19:17:00,31.6,30.4,29.85,WNW,292,0.0,0.0,95,0.00,,,0.03,meteohub,2013-01-17 00:17:00,
2013-01-16 19:22:00,31.6,30.4,29.85,WNW,292,0.0,0.0,95,0.00,,,0.03,meteohub,2013-01-17 00:22:00,
2013-01-16 19:27:00,31.6,30.6,29.84,WNW,292,0.0,0.0,96,0.00,,,0.03,meteohub,2013-01-17 00:27:00,
2013-01-16 19:32:00,31.6,30.6,29.83,WNW,292,0.0,0.0,96,0.00,,,0.03,meteohub,2013-01-17 00:32:00,
2013-01-16 19:37:00,31.5,30.4,29.83,WNW,292,0.0,0.0,96,0.00,,,0.03,meteohub,2013-01-17 00:37:00,
2013-01-16 19:42:00,31.5,30.4,29.84,WNW,292,0.0,0.0,96,0.00,,,0.03,meteohub,2013-01-17 00:42:00,
2013-01-16 19:47:00,31.5,30.4,29.83,WNW,292,0.0,0.0,96,0.00,,,0.03,meteohub,2013-01-17 00:47:00,
2013-01-16 19:52:00,31.5,30.4,29.84,WNW,292,0.0,0.0,96,0.00,,,0.03,meteohub,2013-01-17 00:52:00,
2013-01-16 19:57:00,31.5,30.4,29.85,WNW,292,0.0,0.0,96,0.00,,,0.03,meteohub,2013-01-17 00:57:00,
2013-01-16 20:02:00,31.5,30.4,29.85,WNW,292,0.0,0.0,96,0.00,,,0.03,meteohub,2013-01-17 01:02:00,
2013-01-16 20:07:00,31.5,30.4,29.86,WNW,292,0.0,0.0,96,0.00,,,0.03,meteohub,2013-01-17 01:07:00,
2013-01-16 20:12:00,31.5,30.4,29.86,WNW,292,0.0,0.0,96,0.00,,,0.03,meteohub,2013-01-17 01:12:00,
2013-01-16 20:17:00,31.6,30.6,29.86,WNW,292,0.0,0.0,96,0.00,,,0.03,meteohub,2013-01-17 01:17:00,
2013-01-16 20:22:00,31.6,30.6,29.86,WNW,292,0.0,0.0,96,0.00,,,0.03,meteohub,2013-01-17 01:22:00,
2013-01-16 20:27:00,31.6,30.6,29.85,WNW,292,0.0,0.0,96,0.00,,,0.03,meteohub,2013-01-17 01:27:00,
2013-01-16 20:32:00,31.6,30.6,29.85,WNW,292,0.0,0.0,96,0.00,,,0.03,meteohub,2013-01-17 01:32:00,
2013-01-16 20:37:00,31.6,30.6,29.85,WNW,292,0.0,0.0,96,0.00,,,0.03,meteohub,2013-01-17 01:37:00,
2013-01-16 20:42:00,31.6,30.6,29.85,WNW,292,0.0,0.0,96,0.00,,,0.03,meteohub,2013-01-17 01:42:00,
2013-01-16 20:47:00,31.6,30.6,29.85,WNW,292,0.0,0.0,96,0.00,,,0.03,meteohub,2013-01-17 01:47:00,
2013-01-16 20:52:00,31.8,30.7,29.85,WNW,292,0.0,0.0,96,0.00,,,0.03,meteohub,2013-01-17 01:52:00,
2013-01-16 20:57:00,31.8,30.7,29.84,WNW,292,0.0,0.0,96,0.00,,,0.03,meteohub,2013-01-17 01:57:00,
2013-01-16 21:02:00,31.8,30.7,29.84,WNW,292,0.0,0.0,96,0.00,,,0.03,meteohub,2013-01-17 02:02:00,
2013-01-16 21:07:00,31.8,30.7,29.84,WNW,292,0.0,0.0,96,0.00,,,0.03,meteohub,2013-01-17 02:07:00,
2013-01-16 21:12:00,31.8,30.7,29.84,WNW,292,0.0,0.0,96,0.00,,,0.03,meteohub,2013-01-17 02:12:00,
2013-01-16 21:17:00,31.8,30.7,29.85,WNW,292,0.0,0.0,96,0.00,,,0.03,meteohub,2013-01-17 02:17:00,
2013-01-16 21:22:00,31.8,30.7,29.85,WNW,292,0.0,0.0,96,0.00,,,0.03,meteohub,2013-01-17 02:22:00,
2013-01-16 21:27:00,31.8,30.7,29.85,WNW,292,0.0,0.0,96,0.00,,,0.03,meteohub,2013-01-17 02:27:00,
2013-01-16 21:32:00,31.8,30.7,29.85,WNW,292,0.0,0.0,96,0.00,,,0.03,meteohub,2013-01-17 02:32:00,
2013-01-16 21:37:00,32.0,30.9,29.84,WSW,250,0.0,0.0,96,0.00,,,0.03,meteohub,2013-01-17 02:37:00,
2013-01-16 21:42:00,32.0,30.9,29.84,WNW,286,0.0,0.0,96,0.00,,,0.03,meteohub,2013-01-17 02:42:00,
2013-01-16 21:47:00,32.2,31.1,29.84,WNW,286,0.0,0.0,96,0.00,,,0.03,meteohub,2013-01-17 02:47:00,
2013-01-16 21:52:00,32.2,31.1,29.85,WNW,286,0.0,0.0,96,0.00,,,0.03,meteohub,2013-01-17 02:52:00,
2013-01-16 21:57:00,32.2,31.1,29.85,WNW,286,0.0,0.0,96,0.00,,,0.03,meteohub,2013-01-17 02:57:00,
2013-01-16 22:02:00,32.2,31.1,29.84,WNW,300,0.0,0.0,96,0.00,,,0.03,meteohub,2013-01-17 03:02:00,
2013-01-16 22:07:00,32.4,31.3,29.85,WNW,286,0.0,0.0,96,0.00,,,0.03,meteohub,2013-01-17 03:07:00,
2013-01-16 22:12:00,32.4,31.3,29.85,WNW,284,0.0,0.0,96,0.00,,,0.03,meteohub,2013-01-17 03:12:00,
2013-01-16 22:17:00,32.4,31.3,29.85,West,279,0.0,0.0,96,0.00,,,0.03,meteohub,2013-01-17 03:17:00,
2013-01-16 22:22:00,32.4,31.3,29.85,West,279,0.0,0.0,96,0.00,,,0.03,meteohub,2013-01-17 03:22:00,
2013-01-16 22:26:00,32.4,31.3,29.85,West,279,0.0,0.0,96,0.00,,,0.03,meteohub,2013-01-17 03:26:00,
2013-01-16 22:31:00,32.4,31.3,29.85,West,279,0.0,0.0,96,0.00,,,0.03,meteohub,2013-01-17 03:31:00,
2013-01-16 22:36:00,32.4,31.1,29.85,West,276,0.0,0.0,95,0.00,,,0.03,meteohub,2013-01-17 03:36:00,
2013-01-16 22:42:00,32.4,31.1,29.84,WNW,300,0.0,0.0,95,0.00,,,0.03,meteohub,2013-01-17 03:42:00,
2013-01-16 22:47:00,32.4,31.1,29.84,WNW,295,0.0,0.0,95,0.00,,,0.03,meteohub,2013-01-17 03:47:00,
2013-01-16 22:52:00,32.4,31.3,29.84,WNW,300,0.0,0.0,96,0.00,,,0.03,meteohub,2013-01-17 03:52:00,
2013-01-16 22:57:00,32.4,31.3,29.84,West,277,0.0,0.0,96,0.00,,,0.03,meteohub,2013-01-17 03:57:00,
2013-01-16 23:02:00,32.4,31.3,29.84,WNW,292,0.0,0.0,96,0.00,,,0.03,meteohub,2013-01-17 04:02:00,
2013-01-16 23:07:00,32.4,31.3,29.84,WNW,286,0.0,0.0,96,0.00,,,0.03,meteohub,2013-01-17 04:07:00,
2013-01-16 23:12:00,32.4,31.1,29.83,WNW,283,0.0,0.0,95,0.00,,,0.03,meteohub,2013-01-17 04:12:00,
2013-01-16 23:17:00,32.4,31.1,29.84,WNW,286,0.0,0.0,95,0.00,,,0.03,meteohub,2013-01-17 04:17:00,
2013-01-16 23:22:00,32.4,31.1,29.84,WNW,297,0.0,0.0,95,0.00,,,0.03,meteohub,2013-01-17 04:22:00,
2013-01-16 23:27:00,32.4,31.1,29.84,WNW,292,1.0,3.0,95,0.00,,,0.03,meteohub,2013-01-17 04:27:00,
2013-01-16 23:32:00,32.4,31.1,29.85,WNW,293,2.0,3.0,95,0.00,,,0.03,meteohub,2013-01-17 04:32:00,
2013-01-16 23:37:00,32.4,31.1,29.85,West,277,2.0,3.0,95,0.00,,,0.03,meteohub,2013-01-17 04:37:00,
2013-01-16 23:42:00,32.5,31.3,29.85,NNW,333,2.0,5.0,95,0.00,,,0.03,meteohub,2013-01-17 04:42:00,
2013-01-16 23:47:00,32.5,31.3,29.84,WNW,288,2.0,5.0,95,0.00,,,0.03,meteohub,2013-01-17 04:47:00,
2013-01-16 23:52:00,32.5,31.3,29.85,West,280,2.0,4.0,95,0.00,,,0.03,meteohub,2013-01-17 04:52:00,
2013-01-16 23:57:00,32.5,31.3,29.84,West,269,1.0,4.0,95,0.00,,,0.03,meteohub,2013-01-17 04:57:00,